^^
Saratoga-Weather Station Historical Data
Daily Summary for April 19, 2021 Units:  Both    English   Metric
Daily Weekly Monthly Yearly Custom
  High: Low: Average:
Temperature: 42.4 °F /  5.8 °C 36.3 °F /  2.4 °C 38.3 °F /  3.5 °C
Dew Point: 40.5 °F /  4.7 °C 35.1 °F /  1.7 °C 37 °F /  2.8 °C
Humidity: 97% 92% 95%
Wind Speed: 4mph /  6.4km/h - 0.4mph /  0.6km/h
Wind Gust: 8mph /  12.9km/h - -
Wind- - WSW
Pressure: 30.1 in /  1018.3 hPa 30 in /  1015.6 hPa -
Precipitation: 0 in /  0.0 mm    
Historical Graphs
 
 
Tabular Data for April 19, 2021
Time Temperature Dew Point Pressure Wind Wind Speed Wind Gust Humidity Rainfall Rate (Hourly) solar
00:04 41.7 °F /  5.4 °C 39.9 °F /  4.4 °C 30in /  1015.6hPa West 2mph /  3.2km/h 8mph /  12.9km/h 93% 0in /  0.0mm 0 W/m2
00:09 41.7 °F /  5.4 °C 39.9 °F /  4.4 °C 30in /  1015.6hPa WNW 4mph /  6.4km/h 7mph /  11.3km/h 93% 0in /  0.0mm 0 W/m2
00:14 42.1 °F /  5.6 °C 40.3 °F /  4.6 °C 30in /  1015.6hPa WSW 2mph /  3.2km/h 8mph /  12.9km/h 93% 0in /  0.0mm 0 W/m2
00:19 42.3 °F /  5.7 °C 40.5 °F /  4.7 °C 30in /  1015.6hPa NW 4mph /  6.4km/h 6mph /  9.7km/h 93% 0in /  0.0mm 0 W/m2
00:24 42.4 °F /  5.8 °C 40.3 °F /  4.6 °C 30in /  1015.6hPa West 4mph /  6.4km/h 4mph /  6.4km/h 92% 0in /  0.0mm 0 W/m2
00:29 42.4 °F /  5.8 °C 40.3 °F /  4.6 °C 30in /  1015.6hPa WNW 0.9mph /  1.4km/h 3mph /  4.8km/h 92% 0in /  0.0mm 0 W/m2
00:34 42.4 °F /  5.8 °C 40.3 °F /  4.6 °C 30in /  1015.9hPa WSW 2.9mph /  4.7km/h 4mph /  6.4km/h 92% 0in /  0.0mm 0 W/m2
00:39 42.4 °F /  5.8 °C 40.3 °F /  4.6 °C 30in /  1015.9hPa West 2mph /  3.2km/h 2mph /  3.2km/h 92% 0in /  0.0mm 0 W/m2
00:44 42.3 °F /  5.7 °C 40.1 °F /  4.5 °C 30in /  1015.9hPa West 2mph /  3.2km/h 2mph /  3.2km/h 92% 0in /  0.0mm 0 W/m2
00:49 42.3 °F /  5.7 °C 40.1 °F /  4.5 °C 30in /  1015.9hPa Calm   2mph /  3.2km/h 92% 0in /  0.0mm 0 W/m2
00:54 41.9 °F /  5.5 °C 39.7 °F /  4.3 °C 30in /  1015.9hPa Calm     92% 0in /  0.0mm 0 W/m2
00:59 41.5 °F /  5.3 °C 39.4 °F /  4.1 °C 30in /  1015.9hPa Calm   2mph /  3.2km/h 92% 0in /  0.0mm 0 W/m2
01:04 41.4 °F /  5.2 °C 39.2 °F /  4 °C 30in /  1016.3hPa Calm     92% 0in /  0.0mm 0 W/m2
01:09 40.8 °F /  4.9 °C 38.7 °F /  3.7 °C 30in /  1016.3hPa Calm     92% 0in /  0.0mm 0 W/m2
01:14 40.6 °F /  4.8 °C 38.5 °F /  3.6 °C 30in /  1016.3hPa Calm     92% 0in /  0.0mm 0 W/m2
01:19 40.3 °F /  4.6 °C 38.1 °F /  3.4 °C 30in /  1016.3hPa Calm     92% 0in /  0.0mm 0 W/m2
01:24 39.9 °F /  4.4 °C 38.1 °F /  3.4 °C 30in /  1016.3hPa Calm     93% 0in /  0.0mm 0 W/m2
01:29 39.7 °F /  4.3 °C 37.9 °F /  3.3 °C 30in /  1016.3hPa Calm     93% 0in /  0.0mm 0 W/m2
01:34 39.6 °F /  4.2 °C 37.8 °F /  3.2 °C 30in /  1016.3hPa Calm     93% 0in /  0.0mm 0 W/m2
01:39 39.4 °F /  4.1 °C 37.6 °F /  3.1 °C 30in /  1016.3hPa Calm   1mph /  1.6km/h 93% 0in /  0.0mm 0 W/m2
01:44 39.2 °F /  4 °C 37.4 °F /  3 °C 30in /  1016.3hPa West 0.9mph /  1.4km/h 3mph /  4.8km/h 93% 0in /  0.0mm 0 W/m2
01:49 39 °F /  3.9 °C 37.4 °F /  3 °C 30in /  1016.3hPa Calm     94% 0in /  0.0mm 0 W/m2
01:54 39 °F /  3.9 °C 37.4 °F /  3 °C 30in /  1016.3hPa West 0.9mph /  1.4km/h 3mph /  4.8km/h 94% 0in /  0.0mm 0 W/m2
01:59 39.2 °F /  4 °C 37.6 °F /  3.1 °C 30in /  1016.6hPa Calm     94% 0in /  0.0mm 0 W/m2
02:04 39 °F /  3.9 °C 37.4 °F /  3 °C 30in /  1016.6hPa Calm     94% 0in /  0.0mm 0 W/m2
02:09 39 °F /  3.9 °C 37.4 °F /  3 °C 30in /  1016.6hPa Calm     94% 0in /  0.0mm 0 W/m2
02:14 38.7 °F /  3.7 °C 37 °F /  2.8 °C 30in /  1016.6hPa Calm     94% 0in /  0.0mm 0 W/m2
02:19 38.7 °F /  3.7 °C 37 °F /  2.8 °C 30in /  1016.6hPa Calm   1mph /  1.6km/h 94% 0in /  0.0mm 0 W/m2
02:24 38.3 °F /  3.5 °C 36.7 °F /  2.6 °C 30in /  1016.6hPa Calm     94% 0in /  0.0mm 0 W/m2
02:29 38.1 °F /  3.4 °C 36.5 °F /  2.5 °C 30in /  1016.6hPa Calm   2mph /  3.2km/h 94% 0in /  0.0mm 0 W/m2
02:34 38.1 °F /  3.4 °C 36.9 °F /  2.7 °C 30in /  1016.6hPa Calm     95% 0in /  0.0mm 0 W/m2
02:39 38.3 °F /  3.5 °C 37 °F /  2.8 °C 30in /  1016.6hPa Calm   2mph /  3.2km/h 95% 0in /  0.0mm 0 W/m2
02:44 38.3 °F /  3.5 °C 37 °F /  2.8 °C 30in /  1016.6hPa Calm     95% 0in /  0.0mm 0 W/m2
02:49 38.1 °F /  3.4 °C 36.9 °F /  2.7 °C 30in /  1016.9hPa West 0.9mph /  1.4km/h 2mph /  3.2km/h 95% 0in /  0.0mm 0 W/m2
02:54 38.1 °F /  3.4 °C 36.9 °F /  2.7 °C 30in /  1016.6hPa Calm     95% 0in /  0.0mm 0 W/m2
02:59 37.9 °F /  3.3 °C 36.7 °F /  2.6 °C 30in /  1016.9hPa Calm     95% 0in /  0.0mm 0 W/m2
03:04 37.6 °F /  3.1 °C 36.3 °F /  2.4 °C 30in /  1016.9hPa Calm   1mph /  1.6km/h 95% 0in /  0.0mm 0 W/m2
03:09 37.4 °F /  3 °C 36.1 °F /  2.3 °C 30in /  1016.9hPa Calm   2mph /  3.2km/h 95% 0in /  0.0mm 0 W/m2
03:14 37.6 °F /  3.1 °C 36.3 °F /  2.4 °C 30in /  1016.9hPa Calm     95% 0in /  0.0mm 0 W/m2
03:19 37.9 °F /  3.3 °C 36.9 °F /  2.7 °C 30in /  1016.9hPa WNW 0.9mph /  1.4km/h 3mph /  4.8km/h 96% 0in /  0.0mm 0 W/m2
03:24 38.3 °F /  3.5 °C 37.2 °F /  2.9 °C 30in /  1016.9hPa West 2mph /  3.2km/h 4mph /  6.4km/h 96% 0in /  0.0mm 0 W/m2
03:29 38.7 °F /  3.7 °C 37.6 °F /  3.1 °C 30in /  1016.6hPa Calm     96% 0in /  0.0mm 0 W/m2
03:34 38.5 °F /  3.6 °C 37.4 °F /  3 °C 30in /  1016.9hPa Calm   1mph /  1.6km/h 96% 0in /  0.0mm 0 W/m2
03:39 38.5 °F /  3.6 °C 37.4 °F /  3 °C 30in /  1016.9hPa Calm     96% 0in /  0.0mm 0 W/m2
03:44 38.3 °F /  3.5 °C 37 °F /  2.8 °C 30in /  1016.9hPa Calm     95% 0in /  0.0mm 0 W/m2
03:49 38.1 °F /  3.4 °C 36.9 °F /  2.7 °C 30in /  1016.9hPa Calm     95% 0in /  0.0mm 0 W/m2
03:54 37.8 °F /  3.2 °C 36.5 °F /  2.5 °C 30in /  1016.9hPa Calm     95% 0in /  0.0mm 0 W/m2
03:59 37.6 °F /  3.1 °C 36.3 °F /  2.4 °C 30in /  1016.9hPa Calm     95% 0in /  0.0mm 0 W/m2
04:04 37.4 °F /  3 °C 36.1 °F /  2.3 °C 30in /  1016.9hPa Calm     95% 0in /  0.0mm 0 W/m2
04:09 37 °F /  2.8 °C 35.8 °F /  2.1 °C 30in /  1016.9hPa Calm     95% 0in /  0.0mm 0 W/m2
04:14 36.9 °F /  2.7 °C 35.6 °F /  2 °C 30in /  1016.9hPa Calm     95% 0in /  0.0mm 0 W/m2
04:19 36.7 °F /  2.6 °C 35.4 °F /  1.9 °C 30in /  1016.9hPa Calm     95% 0in /  0.0mm 0 W/m2
04:24 36.5 °F /  2.5 °C 35.2 °F /  1.8 °C 30in /  1016.9hPa Calm     95% 0in /  0.0mm 0 W/m2
04:29 36.3 °F /  2.4 °C 35.1 °F /  1.7 °C 30in /  1016.9hPa Calm     95% 0in /  0.0mm 0 W/m2
04:34 36.5 °F /  2.5 °C 35.4 °F /  1.9 °C 30in /  1016.9hPa Calm     96% 0in /  0.0mm 0 W/m2
04:39 36.5 °F /  2.5 °C 35.4 °F /  1.9 °C 30in /  1016.9hPa Calm     96% 0in /  0.0mm 0 W/m2
04:44 36.7 °F /  2.6 °C 35.6 °F /  2 °C 30in /  1016.9hPa Calm     96% 0in /  0.0mm 0 W/m2
04:49 36.7 °F /  2.6 °C 35.6 °F /  2 °C 30in /  1016.9hPa Calm     96% 0in /  0.0mm 0 W/m2
04:54 36.7 °F /  2.6 °C 35.6 °F /  2 °C 30in /  1016.9hPa Calm     96% 0in /  0.0mm 0 W/m2
04:59 36.7 °F /  2.6 °C 35.6 °F /  2 °C 30in /  1016.9hPa Calm   2mph /  3.2km/h 96% 0in /  0.0mm 0 W/m2
05:04 36.7 °F /  2.6 °C 35.6 °F /  2 °C 30in /  1016.9hPa Calm     96% 0in /  0.0mm 0 W/m2
05:09 36.9 °F /  2.7 °C 35.8 °F /  2.1 °C 30in /  1017.3hPa Calm   2mph /  3.2km/h 96% 0in /  0.0mm 0 W/m2
05:14 37 °F /  2.8 °C 36 °F /  2.2 °C 30in /  1017.3hPa Calm     96% 0in /  0.0mm 0 W/m2
05:19 37 °F /  2.8 °C 36 °F /  2.2 °C 30in /  1017.3hPa Calm   2mph /  3.2km/h 96% 0in /  0.0mm 0 W/m2
05:24 37.2 °F /  2.9 °C 36.1 °F /  2.3 °C 30in /  1017.3hPa Calm   1mph /  1.6km/h 96% 0in /  0.0mm 0 W/m2
05:29 37.2 °F /  2.9 °C 36.1 °F /  2.3 °C 30in /  1017.3hPa Calm   2mph /  3.2km/h 96% 0in /  0.0mm 0 W/m2
05:34 37.2 °F /  2.9 °C 36.1 °F /  2.3 °C 30in /  1017.3hPa Calm     96% 0in /  0.0mm 0 W/m2
05:39 37.4 °F /  3 °C 36.3 °F /  2.4 °C 30in /  1017.3hPa Calm     96% 0in /  0.0mm 0 W/m2
05:44 37.6 °F /  3.1 °C 36.5 °F /  2.5 °C 30in /  1017.3hPa Calm     96% 0in /  0.0mm 0 W/m2
05:49 37.6 °F /  3.1 °C 36.5 °F /  2.5 °C 30in /  1017.3hPa Calm     96% 0in /  0.0mm 0 W/m2
05:54 37.6 °F /  3.1 °C 36.5 °F /  2.5 °C 30in /  1017.3hPa Calm     96% 0in /  0.0mm 0 W/m2
05:59 37.6 °F /  3.1 °C 36.5 °F /  2.5 °C 30in /  1017.3hPa Calm     96% 0in /  0.0mm 0 W/m2
06:04 37.6 °F /  3.1 °C 36.5 °F /  2.5 °C 30.1in /  1017.6hPa Calm   2mph /  3.2km/h 96% 0in /  0.0mm 0 W/m2
06:09 37.4 °F /  3 °C 36.3 °F /  2.4 °C 30.1in /  1017.6hPa Calm     96% 0in /  0.0mm 0 W/m2
06:14 37.4 °F /  3 °C 36.3 °F /  2.4 °C 30in /  1017.3hPa Calm   2mph /  3.2km/h 96% 0in /  0.0mm 0 W/m2
06:19 37.2 °F /  2.9 °C 36.1 °F /  2.3 °C 30.1in /  1017.6hPa Calm     96% 0in /  0.0mm 0 W/m2
06:24 37.2 °F /  2.9 °C 36.1 °F /  2.3 °C 30.1in /  1017.6hPa Calm     96% 0in /  0.0mm 0 W/m2
06:29 37.2 °F /  2.9 °C 36.1 °F /  2.3 °C 30.1in /  1017.6hPa Calm     96% 0in /  0.0mm 0 W/m2
06:34 37 °F /  2.8 °C 36 °F /  2.2 °C 30in /  1017.3hPa Calm   1mph /  1.6km/h 96% 0in /  0.0mm 0 W/m2
06:39 36.7 °F /  2.6 °C 35.6 °F /  2 °C 30in /  1017.3hPa Calm     96% 0in /  0.0mm 0 W/m2
06:44 36.7 °F /  2.6 °C 35.6 °F /  2 °C 30.1in /  1017.6hPa Calm   1mph /  1.6km/h 96% 0in /  0.0mm 0 W/m2
06:49 36.3 °F /  2.4 °C 35.2 °F /  1.8 °C 30.1in /  1017.6hPa Calm     96% 0in /  0.0mm 0 W/m2
06:54 36.3 °F /  2.4 °C 35.2 °F /  1.8 °C 30.1in /  1017.6hPa Calm     96% 0in /  0.0mm 0 W/m2
06:59 36.3 °F /  2.4 °C 35.2 °F /  1.8 °C 30.1in /  1017.6hPa Calm     96% 0in /  0.0mm 0 W/m2
07:04 36.7 °F /  2.6 °C 35.6 °F /  2 °C 30.1in /  1017.6hPa Calm   1mph /  1.6km/h 96% 0in /  0.0mm 0 W/m2
07:09 36.9 °F /  2.7 °C 35.8 °F /  2.1 °C 30.1in /  1017.6hPa Calm     96% 0in /  0.0mm 0 W/m2
07:14 36.9 °F /  2.7 °C 35.8 °F /  2.1 °C 30.1in /  1017.6hPa Calm   1mph /  1.6km/h 96% 0in /  0.0mm 0 W/m2
07:19 37 °F /  2.8 °C 36.3 °F /  2.4 °C 30.1in /  1017.6hPa West 2mph /  3.2km/h 3mph /  4.8km/h 97% 0in /  0.0mm 0 W/m2
07:24 37.2 °F /  2.9 °C 36.1 °F /  2.3 °C 30.1in /  1018.0hPa Calm   1mph /  1.6km/h 96% 0in /  0.0mm 0 W/m2
07:29 37.4 °F /  3 °C 36.3 °F /  2.4 °C 30.1in /  1018.0hPa Calm     96% 0in /  0.0mm 0 W/m2
07:34 37.4 °F /  3 °C 36.3 °F /  2.4 °C 30.1in /  1018.0hPa Calm     96% 0in /  0.0mm 0 W/m2
07:39 37.6 °F /  3.1 °C 36.5 °F /  2.5 °C 30.1in /  1018.0hPa Calm     96% 0in /  0.0mm 0 W/m2
07:44 37.6 °F /  3.1 °C 36.5 °F /  2.5 °C 30.1in /  1018.0hPa Calm   2mph /  3.2km/h 96% 0in /  0.0mm 0 W/m2
07:49 37.6 °F /  3.1 °C 36.5 °F /  2.5 °C 30.1in /  1018.0hPa Calm     96% 0in /  0.0mm 5 W/m2
07:55 37.6 °F /  3.1 °C 36.5 °F /  2.5 °C 30.1in /  1018.0hPa Calm   1mph /  1.6km/h 96% 0in /  0.0mm 9 W/m2
08:00 37.6 °F /  3.1 °C 36.5 °F /  2.5 °C 30.1in /  1018.0hPa Calm     96% 0in /  0.0mm 11 W/m2
08:05 37.8 °F /  3.2 °C 37 °F /  2.8 °C 30.1in /  1018.0hPa Calm   1mph /  1.6km/h 97% 0in /  0.0mm 11 W/m2
08:10 37.8 °F /  3.2 °C 37 °F /  2.8 °C 30.1in /  1018.0hPa Calm     97% 0in /  0.0mm 11 W/m2
08:15 37.9 °F /  3.3 °C 37.2 °F /  2.9 °C 30.1in /  1018.0hPa Calm     97% 0in /  0.0mm 18 W/m2
08:20 38.1 °F /  3.4 °C 37.4 °F /  3 °C 30.1in /  1018.3hPa Calm     97% 0in /  0.0mm 21 W/m2
08:25 38.1 °F /  3.4 °C 37.4 °F /  3 °C 30.1in /  1018.3hPa SSE 0.9mph /  1.4km/h 1mph /  1.6km/h 97% 0in /  0.0mm 16 W/m2
08:30 38.5 °F /  3.6 °C 37.8 °F /  3.2 °C 30.1in /  1018.3hPa ESE 2mph /  3.2km/h 2mph /  3.2km/h 97% 0in /  0.0mm 12 W/m2
08:35 38.5 °F /  3.6 °C 37.8 °F /  3.2 °C 30.1in /  1018.0hPa ESE 0.9mph /  1.4km/h 2mph /  3.2km/h 97% 0in /  0.0mm 30 W/m2
08:40 38.5 °F /  3.6 °C 37.8 °F /  3.2 °C 30.1in /  1018.0hPa ESE 0.9mph /  1.4km/h 2mph /  3.2km/h 97% 0in /  0.0mm 23 W/m2
Juneau County Weather
Compliments of Weather Underground - 4 mb